sensor_id;sensor_type;location;lat;lon;timestamp;temperature;humidity
45619;DHT22;31343;47.520;19.144;2022-11-20T00:01:17;3.00;99.90
45619;DHT22;31343;47.520;19.144;2022-11-20T00:03:43;3.10;99.90
45619;DHT22;31343;47.520;19.144;2022-11-20T00:06:17;3.10;99.90
45619;DHT22;31343;47.520;19.144;2022-11-20T00:08:44;3.10;99.90
45619;DHT22;31343;47.520;19.144;2022-11-20T00:11:18;3.00;99.90
45619;DHT22;31343;47.520;19.144;2022-11-20T00:13:45;3.10;99.90
45619;DHT22;31343;47.520;19.144;2022-11-20T00:16:12;3.00;99.90
45619;DHT22;31343;47.520;19.144;2022-11-20T00:18:39;3.00;99.90
45619;DHT22;31343;47.520;19.144;2022-11-20T00:21:14;3.00;99.90
45619;DHT22;31343;47.520;19.144;2022-11-20T00:23:41;2.90;99.90
45619;DHT22;31343;47.520;19.144;2022-11-20T00:26:09;2.90;99.90
45619;DHT22;31343;47.520;19.144;2022-11-20T00:28:35;3.00;99.90
45619;DHT22;31343;47.520;19.144;2022-11-20T00:31:13;2.90;99.90
45619;DHT22;31343;47.520;19.144;2022-11-20T00:33:40;3.00;99.90
45619;DHT22;31343;47.520;19.144;2022-11-20T00:36:09;2.90;99.90
45619;DHT22;31343;47.520;19.144;2022-11-20T00:38:35;2.80;99.90
45619;DHT22;31343;47.520;19.144;2022-11-20T00:41:06;2.80;99.90
45619;DHT22;31343;47.520;19.144;2022-11-20T00:43:33;2.80;99.90
45619;DHT22;31343;47.520;19.144;2022-11-20T00:46:00;2.80;99.90
45619;DHT22;31343;47.520;19.144;2022-11-20T00:48:26;2.70;99.90
45619;DHT22;31343;47.520;19.144;2022-11-20T00:50:53;2.70;99.90
45619;DHT22;31343;47.520;19.144;2022-11-20T00:53:18;2.70;99.90
45619;DHT22;31343;47.520;19.144;2022-11-20T00:55:56;2.70;99.90
45619;DHT22;31343;47.520;19.144;2022-11-20T00:58:23;2.80;99.90
45619;DHT22;31343;47.520;19.144;2022-11-20T01:00:50;2.90;99.90
45619;DHT22;31343;47.520;19.144;2022-11-20T01:03:17;2.90;99.90
45619;DHT22;31343;47.520;19.144;2022-11-20T01:05:43;2.80;99.90
45619;DHT22;31343;47.520;19.144;2022-11-20T01:08:09;2.80;99.90
45619;DHT22;31343;47.520;19.144;2022-11-20T01:10:35;2.80;99.90
45619;DHT22;31343;47.520;19.144;2022-11-20T01:13:00;2.80;99.90
45619;DHT22;31343;47.520;19.144;2022-11-20T01:15:45;2.80;99.90
45619;DHT22;31343;47.520;19.144;2022-11-20T01:18:10;2.80;99.90
45619;DHT22;31343;47.520;19.144;2022-11-20T01:20:36;2.70;99.90
45619;DHT22;31343;47.520;19.144;2022-11-20T01:23:03;2.70;99.90
45619;DHT22;31343;47.520;19.144;2022-11-20T01:25:29;2.60;99.90
45619;DHT22;31343;47.520;19.144;2022-11-20T01:27:54;2.70;99.90
45619;DHT22;31343;47.520;19.144;2022-11-20T01:30:20;2.60;99.90
45619;DHT22;31343;47.520;19.144;2022-11-20T01:32:46;2.70;99.90
45619;DHT22;31343;47.520;19.144;2022-11-20T01:35:11;2.60;99.90
45619;DHT22;31343;47.520;19.144;2022-11-20T01:37:37;2.70;99.90
45619;DHT22;31343;47.520;19.144;2022-11-20T01:40:03;2.70;99.90
45619;DHT22;31343;47.520;19.144;2022-11-20T01:42:29;2.70;99.90
45619;DHT22;31343;47.520;19.144;2022-11-20T01:48:18;2.80;99.90
45619;DHT22;31343;47.520;19.144;2022-11-20T01:50:44;2.70;99.90
45619;DHT22;31343;47.520;19.144;2022-11-20T01:53:13;2.80;99.90
45619;DHT22;31343;47.520;19.144;2022-11-20T01:55:49;2.70;99.90
45619;DHT22;31343;47.520;19.144;2022-11-20T01:58:17;2.80;99.90
45619;DHT22;31343;47.520;19.144;2022-11-20T02:00:44;2.80;99.90
45619;DHT22;31343;47.520;19.144;2022-11-20T02:03:13;2.70;99.90
45619;DHT22;31343;47.520;19.144;2022-11-20T02:08:11;2.80;99.90
45619;DHT22;31343;47.520;19.144;2022-11-20T02:10:38;2.80;99.90
45619;DHT22;31343;47.520;19.144;2022-11-20T02:13:04;2.80;99.90
45619;DHT22;31343;47.520;19.144;2022-11-20T02:15:48;2.90;99.90
45619;DHT22;31343;47.520;19.144;2022-11-20T02:18:16;2.80;99.90
45619;DHT22;31343;47.520;19.144;2022-11-20T02:20:44;2.80;99.90
45619;DHT22;31343;47.520;19.144;2022-11-20T02:23:24;2.80;99.90
45619;DHT22;31343;47.520;19.144;2022-11-20T02:25:52;2.80;99.90
45619;DHT22;31343;47.520;19.144;2022-11-20T02:28:19;2.90;99.90
45619;DHT22;31343;47.520;19.144;2022-11-20T02:30:45;2.90;99.90
45619;DHT22;31343;47.520;19.144;2022-11-20T02:33:12;2.90;99.90
45619;DHT22;31343;47.520;19.144;2022-11-20T02:35:43;2.80;99.90
45619;DHT22;31343;47.520;19.144;2022-11-20T02:38:09;2.90;99.90
45619;DHT22;31343;47.520;19.144;2022-11-20T02:40:35;2.90;99.90
45619;DHT22;31343;47.520;19.144;2022-11-20T02:43:01;2.90;99.90
45619;DHT22;31343;47.520;19.144;2022-11-20T02:45:26;3.00;99.90
45619;DHT22;31343;47.520;19.144;2022-11-20T02:47:52;3.00;99.90
45619;DHT22;31343;47.520;19.144;2022-11-20T02:50:18;3.00;99.90
45619;DHT22;31343;47.520;19.144;2022-11-20T02:52:44;3.00;99.90
45619;DHT22;31343;47.520;19.144;2022-11-20T02:55:10;3.00;99.90
45619;DHT22;31343;47.520;19.144;2022-11-20T02:57:35;2.90;99.90
45619;DHT22;31343;47.520;19.144;2022-11-20T03:00:03;2.90;99.90
45619;DHT22;31343;47.520;19.144;2022-11-20T03:02:32;2.90;99.90
45619;DHT22;31343;47.520;19.144;2022-11-20T03:04:58;2.90;99.90
45619;DHT22;31343;47.520;19.144;2022-11-20T03:07:24;2.90;99.90
45619;DHT22;31343;47.520;19.144;2022-11-20T03:09:50;2.90;99.90
45619;DHT22;31343;47.520;19.144;2022-11-20T03:12:15;2.90;99.90
45619;DHT22;31343;47.520;19.144;2022-11-20T03:14:41;2.90;99.90
45619;DHT22;31343;47.520;19.144;2022-11-20T03:17:06;2.90;99.90
45619;DHT22;31343;47.520;19.144;2022-11-20T03:19:32;2.90;99.90
45619;DHT22;31343;47.520;19.144;2022-11-20T03:21:58;3.00;99.90
45619;DHT22;31343;47.520;19.144;2022-11-20T03:24:23;3.00;99.90
45619;DHT22;31343;47.520;19.144;2022-11-20T03:26:49;3.00;99.90
45619;DHT22;31343;47.520;19.144;2022-11-20T03:29:15;3.10;99.90
45619;DHT22;31343;47.520;19.144;2022-11-20T03:31:40;3.10;99.90
45619;DHT22;31343;47.520;19.144;2022-11-20T03:34:08;3.10;99.90
45619;DHT22;31343;47.520;19.144;2022-11-20T03:36:34;2.90;99.90
45619;DHT22;31343;47.520;19.144;2022-11-20T03:39:02;2.90;99.90
45619;DHT22;31343;47.520;19.144;2022-11-20T03:41:30;2.90;99.90
45619;DHT22;31343;47.520;19.144;2022-11-20T03:44:01;3.00;99.90
45619;DHT22;31343;47.520;19.144;2022-11-20T03:46:28;3.10;99.90
45619;DHT22;31343;47.520;19.144;2022-11-20T03:48:54;3.10;99.90
45619;DHT22;31343;47.520;19.144;2022-11-20T03:51:25;3.00;99.90
45619;DHT22;31343;47.520;19.144;2022-11-20T03:53:53;3.00;99.90
45619;DHT22;31343;47.520;19.144;2022-11-20T03:56:22;3.10;99.90
45619;DHT22;31343;47.520;19.144;2022-11-20T03:58:48;3.00;99.90
45619;DHT22;31343;47.520;19.144;2022-11-20T04:01:17;2.90;99.90
45619;DHT22;31343;47.520;19.144;2022-11-20T04:03:43;2.80;99.90
45619;DHT22;31343;47.520;19.144;2022-11-20T04:06:12;2.80;99.90
45619;DHT22;31343;47.520;19.144;2022-11-20T04:08:38;2.90;99.90
45619;DHT22;31343;47.520;19.144;2022-11-20T04:11:16;2.80;99.90
45619;DHT22;31343;47.520;19.144;2022-11-20T04:13:45;2.80;99.90
45619;DHT22;31343;47.520;19.144;2022-11-20T04:16:11;2.90;99.90
45619;DHT22;31343;47.520;19.144;2022-11-20T04:18:37;2.90;99.90
45619;DHT22;31343;47.520;19.144;2022-11-20T04:21:04;2.90;99.90
45619;DHT22;31343;47.520;19.144;2022-11-20T04:23:30;2.90;99.90
45619;DHT22;31343;47.520;19.144;2022-11-20T04:28:33;2.90;99.90
45619;DHT22;31343;47.520;19.144;2022-11-20T04:31:13;2.90;99.90
45619;DHT22;31343;47.520;19.144;2022-11-20T04:33:41;2.90;99.90
45619;DHT22;31343;47.520;19.144;2022-11-20T04:36:14;2.90;99.90
45619;DHT22;31343;47.520;19.144;2022-11-20T04:38:40;2.90;99.90
45619;DHT22;31343;47.520;19.144;2022-11-20T04:41:07;2.90;99.90
45619;DHT22;31343;47.520;19.144;2022-11-20T04:43:33;2.90;99.90
45619;DHT22;31343;47.520;19.144;2022-11-20T04:46:00;2.90;99.90
45619;DHT22;31343;47.520;19.144;2022-11-20T04:48:26;3.00;99.90
45619;DHT22;31343;47.520;19.144;2022-11-20T04:50:53;3.00;99.90
45619;DHT22;31343;47.520;19.144;2022-11-20T04:53:19;3.00;99.90
45619;DHT22;31343;47.520;19.144;2022-11-20T04:55:45;2.90;99.90
45619;DHT22;31343;47.520;19.144;2022-11-20T04:58:11;2.90;99.90
45619;DHT22;31343;47.520;19.144;2022-11-20T05:00:37;3.00;99.90
45619;DHT22;31343;47.520;19.144;2022-11-20T05:03:03;3.00;99.90
45619;DHT22;31343;47.520;19.144;2022-11-20T05:05:29;3.00;99.90
45619;DHT22;31343;47.520;19.144;2022-11-20T05:07:58;2.90;99.90
45619;DHT22;31343;47.520;19.144;2022-11-20T05:10:25;2.90;99.90
45619;DHT22;31343;47.520;19.144;2022-11-20T05:12:51;3.00;99.90
45619;DHT22;31343;47.520;19.144;2022-11-20T05:15:16;3.00;99.90
45619;DHT22;31343;47.520;19.144;2022-11-20T05:17:50;2.90;99.90
45619;DHT22;31343;47.520;19.144;2022-11-20T05:20:16;2.90;99.90
45619;DHT22;31343;47.520;19.144;2022-11-20T05:22:42;2.90;99.90
45619;DHT22;31343;47.520;19.144;2022-11-20T05:25:08;2.90;99.90
45619;DHT22;31343;47.520;19.144;2022-11-20T05:27:34;2.90;99.90
45619;DHT22;31343;47.520;19.144;2022-11-20T05:30:00;2.90;99.90
45619;DHT22;31343;47.520;19.144;2022-11-20T05:32:25;2.90;99.90
45619;DHT22;31343;47.520;19.144;2022-11-20T05:34:52;2.90;99.90
45619;DHT22;31343;47.520;19.144;2022-11-20T05:37:17;3.00;99.90
45619;DHT22;31343;47.520;19.144;2022-11-20T05:39:43;2.90;99.90
45619;DHT22;31343;47.520;19.144;2022-11-20T05:42:09;2.90;99.90
45619;DHT22;31343;47.520;19.144;2022-11-20T05:44:53;3.00;99.90
45619;DHT22;31343;47.520;19.144;2022-11-20T05:47:19;2.90;99.90
45619;DHT22;31343;47.520;19.144;2022-11-20T05:49:45;2.90;99.90
45619;DHT22;31343;47.520;19.144;2022-11-20T05:52:10;3.00;99.90
45619;DHT22;31343;47.520;19.144;2022-11-20T05:54:36;2.90;99.90
45619;DHT22;31343;47.520;19.144;2022-11-20T05:57:02;3.00;99.90
45619;DHT22;31343;47.520;19.144;2022-11-20T05:59:27;3.10;99.90
45619;DHT22;31343;47.520;19.144;2022-11-20T06:01:53;3.10;99.90
45619;DHT22;31343;47.520;19.144;2022-11-20T06:04:18;3.10;99.90
45619;DHT22;31343;47.520;19.144;2022-11-20T06:06:44;3.10;99.90
45619;DHT22;31343;47.520;19.144;2022-11-20T06:09:10;3.10;99.90
45619;DHT22;31343;47.520;19.144;2022-11-20T06:11:36;3.20;99.90
45619;DHT22;31343;47.520;19.144;2022-11-20T06:14:01;3.20;99.90
45619;DHT22;31343;47.520;19.144;2022-11-20T06:16:27;3.10;99.90
45619;DHT22;31343;47.520;19.144;2022-11-20T06:18:52;3.10;99.90
45619;DHT22;31343;47.520;19.144;2022-11-20T06:21:20;3.10;99.90
45619;DHT22;31343;47.520;19.144;2022-11-20T06:23:47;3.20;99.90
45619;DHT22;31343;47.520;19.144;2022-11-20T06:26:18;3.10;99.90
45619;DHT22;31343;47.520;19.144;2022-11-20T06:28:44;3.20;99.90
45619;DHT22;31343;47.520;19.144;2022-11-20T06:31:12;3.20;99.90
45619;DHT22;31343;47.520;19.144;2022-11-20T06:33:38;3.20;99.90
45619;DHT22;31343;47.520;19.144;2022-11-20T06:36:04;3.20;99.90
45619;DHT22;31343;47.520;19.144;2022-11-20T06:38:30;3.30;99.90
45619;DHT22;31343;47.520;19.144;2022-11-20T06:40:56;3.30;99.90
45619;DHT22;31343;47.520;19.144;2022-11-20T06:43:22;3.40;99.90
45619;DHT22;31343;47.520;19.144;2022-11-20T06:45:55;3.30;99.90
45619;DHT22;31343;47.520;19.144;2022-11-20T06:48:22;3.40;99.90
45619;DHT22;31343;47.520;19.144;2022-11-20T06:50:48;3.50;99.90
45619;DHT22;31343;47.520;19.144;2022-11-20T06:53:14;3.40;99.90
45619;DHT22;31343;47.520;19.144;2022-11-20T06:55:47;3.50;99.90
45619;DHT22;31343;47.520;19.144;2022-11-20T06:58:13;3.60;99.90
45619;DHT22;31343;47.520;19.144;2022-11-20T07:00:39;3.60;99.90
45619;DHT22;31343;47.520;19.144;2022-11-20T07:03:06;3.70;99.90
45619;DHT22;31343;47.520;19.144;2022-11-20T07:05:32;3.70;99.90
45619;DHT22;31343;47.520;19.144;2022-11-20T07:07:58;3.60;99.90
45619;DHT22;31343;47.520;19.144;2022-11-20T07:10:24;3.60;99.90
45619;DHT22;31343;47.520;19.144;2022-11-20T07:12:51;3.60;99.90
45619;DHT22;31343;47.520;19.144;2022-11-20T07:15:17;3.70;99.90
45619;DHT22;31343;47.520;19.144;2022-11-20T07:17:43;3.80;99.90
45619;DHT22;31343;47.520;19.144;2022-11-20T07:20:09;3.80;99.90
45619;DHT22;31343;47.520;19.144;2022-11-20T07:22:35;3.80;99.90
45619;DHT22;31343;47.520;19.144;2022-11-20T07:25:01;3.80;99.90
45619;DHT22;31343;47.520;19.144;2022-11-20T07:27:27;3.80;99.90
45619;DHT22;31343;47.520;19.144;2022-11-20T07:29:53;3.80;99.90
45619;DHT22;31343;47.520;19.144;2022-11-20T07:32:19;3.80;99.90
45619;DHT22;31343;47.520;19.144;2022-11-20T07:34:45;3.70;99.90
45619;DHT22;31343;47.520;19.144;2022-11-20T07:37:10;3.80;99.90
45619;DHT22;31343;47.520;19.144;2022-11-20T07:39:36;3.90;99.90
45619;DHT22;31343;47.520;19.144;2022-11-20T07:42:02;3.80;99.90
45619;DHT22;31343;47.520;19.144;2022-11-20T07:44:27;3.80;99.90
45619;DHT22;31343;47.520;19.144;2022-11-20T07:46:53;3.70;99.90
45619;DHT22;31343;47.520;19.144;2022-11-20T07:49:19;3.70;99.90
45619;DHT22;31343;47.520;19.144;2022-11-20T07:51:44;3.80;99.90
45619;DHT22;31343;47.520;19.144;2022-11-20T07:54:10;3.80;99.90
45619;DHT22;31343;47.520;19.144;2022-11-20T07:56:36;3.90;99.90
45619;DHT22;31343;47.520;19.144;2022-11-20T07:59:01;3.90;99.90
45619;DHT22;31343;47.520;19.144;2022-11-20T08:01:28;3.90;99.90
45619;DHT22;31343;47.520;19.144;2022-11-20T08:03:54;3.90;99.90
45619;DHT22;31343;47.520;19.144;2022-11-20T08:06:19;3.80;99.90
45619;DHT22;31343;47.520;19.144;2022-11-20T08:08:45;3.80;99.90
45619;DHT22;31343;47.520;19.144;2022-11-20T08:11:11;3.90;99.90
45619;DHT22;31343;47.520;19.144;2022-11-20T08:13:55;3.90;99.90
45619;DHT22;31343;47.520;19.144;2022-11-20T08:19:08;4.00;99.90
45619;DHT22;31343;47.520;19.144;2022-11-20T08:21:34;4.10;99.90
45619;DHT22;31343;47.520;19.144;2022-11-20T08:24:00;4.10;99.90
45619;DHT22;31343;47.520;19.144;2022-11-20T08:26:26;4.00;99.90
45619;DHT22;31343;47.520;19.144;2022-11-20T08:28:58;4.10;99.90
45619;DHT22;31343;47.520;19.144;2022-11-20T08:31:25;4.10;99.90
45619;DHT22;31343;47.520;19.144;2022-11-20T08:33:51;4.10;99.90
45619;DHT22;31343;47.520;19.144;2022-11-20T08:36:18;4.00;99.90
45619;DHT22;31343;47.520;19.144;2022-11-20T08:39:02;3.70;99.90
45619;DHT22;31343;47.520;19.144;2022-11-20T08:41:29;3.90;99.90
45619;DHT22;31343;47.520;19.144;2022-11-20T08:44:03;4.00;99.90
45619;DHT22;31343;47.520;19.144;2022-11-20T08:46:47;4.10;99.90
45619;DHT22;31343;47.520;19.144;2022-11-20T08:49:14;4.20;99.90
45619;DHT22;31343;47.520;19.144;2022-11-20T08:51:40;4.30;99.90
45619;DHT22;31343;47.520;19.144;2022-11-20T08:54:07;4.40;99.90
45619;DHT22;31343;47.520;19.144;2022-11-20T08:56:33;4.50;99.90
45619;DHT22;31343;47.520;19.144;2022-11-20T08:58:58;4.50;99.90
45619;DHT22;31343;47.520;19.144;2022-11-20T09:01:25;4.60;99.90
45619;DHT22;31343;47.520;19.144;2022-11-20T09:03:51;4.50;99.90
45619;DHT22;31343;47.520;19.144;2022-11-20T09:06:17;4.60;99.90
45619;DHT22;31343;47.520;19.144;2022-11-20T09:08:43;4.70;99.90
45619;DHT22;31343;47.520;19.144;2022-11-20T09:11:10;4.80;99.90
45619;DHT22;31343;47.520;19.144;2022-11-20T09:13:36;4.90;99.90
45619;DHT22;31343;47.520;19.144;2022-11-20T09:16:04;4.90;99.90
45619;DHT22;31343;47.520;19.144;2022-11-20T09:18:31;4.90;99.90
45619;DHT22;31343;47.520;19.144;2022-11-20T09:21:02;5.00;99.90
45619;DHT22;31343;47.520;19.144;2022-11-20T09:23:32;5.10;99.90
45619;DHT22;31343;47.520;19.144;2022-11-20T09:26:02;5.10;99.90
45619;DHT22;31343;47.520;19.144;2022-11-20T09:28:28;5.00;99.90
45619;DHT22;31343;47.520;19.144;2022-11-20T09:30:53;5.00;99.90
45619;DHT22;31343;47.520;19.144;2022-11-20T09:33:19;5.00;99.90
45619;DHT22;31343;47.520;19.144;2022-11-20T09:35:44;5.00;99.90
45619;DHT22;31343;47.520;19.144;2022-11-20T09:38:10;5.00;99.90
45619;DHT22;31343;47.520;19.144;2022-11-20T09:40:39;5.00;99.90
45619;DHT22;31343;47.520;19.144;2022-11-20T09:43:32;5.00;99.90
45619;DHT22;31343;47.520;19.144;2022-11-20T09:46:17;5.00;99.90
45619;DHT22;31343;47.520;19.144;2022-11-20T09:54:22;5.30;99.90
45619;DHT22;31343;47.520;19.144;2022-11-20T09:57:01;5.40;99.90
45619;DHT22;31343;47.520;19.144;2022-11-20T10:04:39;5.50;99.90
45619;DHT22;31343;47.520;19.144;2022-11-20T10:07:15;5.60;99.90
45619;DHT22;31343;47.520;19.144;2022-11-20T10:09:50;5.60;99.90
45619;DHT22;31343;47.520;19.144;2022-11-20T10:15:24;5.80;99.90
45619;DHT22;31343;47.520;19.144;2022-11-20T10:23:56;6.00;99.90
45619;DHT22;31343;47.520;19.144;2022-11-20T10:26:43;6.00;99.90
45619;DHT22;31343;47.520;19.144;2022-11-20T10:29:16;6.00;99.90
45619;DHT22;31343;47.520;19.144;2022-11-20T10:31:56;6.20;99.90
45619;DHT22;31343;47.520;19.144;2022-11-20T10:34:28;6.30;99.90
45619;DHT22;31343;47.520;19.144;2022-11-20T10:36:59;6.50;99.90
45619;DHT22;31343;47.520;19.144;2022-11-20T10:39:48;6.70;99.90
45619;DHT22;31343;47.520;19.144;2022-11-20T10:42:20;6.90;99.90
45619;DHT22;31343;47.520;19.144;2022-11-20T10:44:52;6.90;99.90
45619;DHT22;31343;47.520;19.144;2022-11-20T10:47:30;7.00;99.90
45619;DHT22;31343;47.520;19.144;2022-11-20T10:50:03;7.20;99.90
45619;DHT22;31343;47.520;19.144;2022-11-20T10:56:00;7.40;99.90
45619;DHT22;31343;47.520;19.144;2022-11-20T11:03:39;7.60;99.90
45619;DHT22;31343;47.520;19.144;2022-11-20T11:06:10;7.70;99.90
45619;DHT22;31343;47.520;19.144;2022-11-20T11:08:39;7.80;99.90
45619;DHT22;31343;47.520;19.144;2022-11-20T11:11:23;7.90;99.90
45619;DHT22;31343;47.520;19.144;2022-11-20T11:13:50;8.20;99.90
45619;DHT22;31343;47.520;19.144;2022-11-20T11:16:25;8.30;99.90
45619;DHT22;31343;47.520;19.144;2022-11-20T11:18:51;8.30;99.90
45619;DHT22;31343;47.520;19.144;2022-11-20T11:21:24;8.20;99.90
45619;DHT22;31343;47.520;19.144;2022-11-20T11:24:01;8.00;99.90
45619;DHT22;31343;47.520;19.144;2022-11-20T11:26:28;8.00;99.90
45619;DHT22;31343;47.520;19.144;2022-11-20T11:28:59;8.10;99.90
45619;DHT22;31343;47.520;19.144;2022-11-20T11:31:27;8.00;99.90
45619;DHT22;31343;47.520;19.144;2022-11-20T11:34:04;8.10;99.90
45619;DHT22;31343;47.520;19.144;2022-11-20T11:36:30;8.10;99.90
45619;DHT22;31343;47.520;19.144;2022-11-20T11:38:57;8.20;99.90
45619;DHT22;31343;47.520;19.144;2022-11-20T11:41:27;8.40;99.90
45619;DHT22;31343;47.520;19.144;2022-11-20T11:44:01;8.40;99.90
45619;DHT22;31343;47.520;19.144;2022-11-20T11:46:55;8.30;99.90
45619;DHT22;31343;47.520;19.144;2022-11-20T11:49:22;8.40;99.90
45619;DHT22;31343;47.520;19.144;2022-11-20T11:52:17;8.50;99.90
45619;DHT22;31343;47.520;19.144;2022-11-20T11:55:01;8.30;99.90
45619;DHT22;31343;47.520;19.144;2022-11-20T11:57:43;8.40;99.90
45619;DHT22;31343;47.520;19.144;2022-11-20T12:00:12;8.40;99.90
45619;DHT22;31343;47.520;19.144;2022-11-20T12:02:49;8.30;99.90
45619;DHT22;31343;47.520;19.144;2022-11-20T12:05:40;8.20;99.90
45619;DHT22;31343;47.520;19.144;2022-11-20T12:08:27;8.30;99.90
45619;DHT22;31343;47.520;19.144;2022-11-20T12:13:31;8.30;99.90
45619;DHT22;31343;47.520;19.144;2022-11-20T12:16:04;8.20;99.90
45619;DHT22;31343;47.520;19.144;2022-11-20T12:18:30;8.30;99.90
45619;DHT22;31343;47.520;19.144;2022-11-20T12:23:44;8.40;99.90
45619;DHT22;31343;47.520;19.144;2022-11-20T12:26:34;8.30;99.90
45619;DHT22;31343;47.520;19.144;2022-11-20T12:29:35;8.30;99.90
45619;DHT22;31343;47.520;19.144;2022-11-20T12:34:52;8.20;99.90
45619;DHT22;31343;47.520;19.144;2022-11-20T12:40:02;8.00;99.90
45619;DHT22;31343;47.520;19.144;2022-11-20T12:42:48;8.00;99.90
45619;DHT22;31343;47.520;19.144;2022-11-20T12:54:06;7.80;99.90
45619;DHT22;31343;47.520;19.144;2022-11-20T12:56:42;7.70;99.90
45619;DHT22;31343;47.520;19.144;2022-11-20T13:02:10;7.60;99.90
45619;DHT22;31343;47.520;19.144;2022-11-20T13:07:26;7.40;99.90
45619;DHT22;31343;47.520;19.144;2022-11-20T13:09:53;7.40;99.90
45619;DHT22;31343;47.520;19.144;2022-11-20T13:12:43;7.30;99.90
45619;DHT22;31343;47.520;19.144;2022-11-20T13:18:02;7.30;99.90
45619;DHT22;31343;47.520;19.144;2022-11-20T13:20:29;7.30;99.90
45619;DHT22;31343;47.520;19.144;2022-11-20T13:22:56;7.40;99.90
45619;DHT22;31343;47.520;19.144;2022-11-20T13:25:31;7.30;99.90
45619;DHT22;31343;47.520;19.144;2022-11-20T13:27:59;7.50;99.90
45619;DHT22;31343;47.520;19.144;2022-11-20T13:30:27;7.50;99.90
45619;DHT22;31343;47.520;19.144;2022-11-20T13:33:22;7.60;99.90
45619;DHT22;31343;47.520;19.144;2022-11-20T13:35:57;7.70;99.90
45619;DHT22;31343;47.520;19.144;2022-11-20T13:38:23;7.80;99.90
45619;DHT22;31343;47.520;19.144;2022-11-20T13:40:55;7.90;99.90
45619;DHT22;31343;47.520;19.144;2022-11-20T13:43:38;7.80;99.90
45619;DHT22;31343;47.520;19.144;2022-11-20T13:46:06;7.90;99.90
45619;DHT22;31343;47.520;19.144;2022-11-20T13:48:38;7.80;99.90
45619;DHT22;31343;47.520;19.144;2022-11-20T14:01:48;7.40;99.90
45619;DHT22;31343;47.520;19.144;2022-11-20T14:04:20;7.40;99.90
45619;DHT22;31343;47.520;19.144;2022-11-20T14:06:50;7.30;99.90
45619;DHT22;31343;47.520;19.144;2022-11-20T14:09:30;7.30;99.90
45619;DHT22;31343;47.520;19.144;2022-11-20T14:11:57;7.30;99.90
45619;DHT22;31343;47.520;19.144;2022-11-20T14:14:25;7.20;99.90
45619;DHT22;31343;47.520;19.144;2022-11-20T14:16:52;7.10;99.90
45619;DHT22;31343;47.520;19.144;2022-11-20T14:21:49;7.00;99.90
45619;DHT22;31343;47.520;19.144;2022-11-20T14:24:20;7.00;99.90
45619;DHT22;31343;47.520;19.144;2022-11-20T14:26:47;6.90;99.90
45619;DHT22;31343;47.520;19.144;2022-11-20T14:29:28;6.90;99.90
45619;DHT22;31343;47.520;19.144;2022-11-20T14:31:55;6.80;99.90
45619;DHT22;31343;47.520;19.144;2022-11-20T14:34:24;6.70;99.90
45619;DHT22;31343;47.520;19.144;2022-11-20T14:36:59;6.80;99.90
45619;DHT22;31343;47.520;19.144;2022-11-20T14:39:35;6.70;99.90
45619;DHT22;31343;47.520;19.144;2022-11-20T14:42:01;6.60;99.90
45619;DHT22;31343;47.520;19.144;2022-11-20T14:44:32;6.60;99.90
45619;DHT22;31343;47.520;19.144;2022-11-20T14:46:59;6.60;99.90
45619;DHT22;31343;47.520;19.144;2022-11-20T14:49:26;6.70;99.90
45619;DHT22;31343;47.520;19.144;2022-11-20T14:52:02;6.50;99.90
45619;DHT22;31343;47.520;19.144;2022-11-20T14:54:29;6.50;99.90
45619;DHT22;31343;47.520;19.144;2022-11-20T14:57:03;6.40;99.90
45619;DHT22;31343;47.520;19.144;2022-11-20T14:59:33;6.40;99.90
45619;DHT22;31343;47.520;19.144;2022-11-20T15:02:04;6.40;99.90
45619;DHT22;31343;47.520;19.144;2022-11-20T15:04:30;6.30;99.90
45619;DHT22;31343;47.520;19.144;2022-11-20T15:06:58;6.30;99.90
45619;DHT22;31343;47.520;19.144;2022-11-20T15:09:24;6.30;99.90
45619;DHT22;31343;47.520;19.144;2022-11-20T15:12:01;6.30;99.90
45619;DHT22;31343;47.520;19.144;2022-11-20T15:14:28;6.30;99.90
45619;DHT22;31343;47.520;19.144;2022-11-20T15:16:56;6.20;99.90
45619;DHT22;31343;47.520;19.144;2022-11-20T15:19:24;6.10;99.90
45619;DHT22;31343;47.520;19.144;2022-11-20T15:21:50;6.10;99.90
45619;DHT22;31343;47.520;19.144;2022-11-20T15:24:16;6.00;99.90
45619;DHT22;31343;47.520;19.144;2022-11-20T15:26:42;5.90;99.90
45619;DHT22;31343;47.520;19.144;2022-11-20T15:29:14;5.90;99.90
45619;DHT22;31343;47.520;19.144;2022-11-20T15:31:40;5.80;99.90
45619;DHT22;31343;47.520;19.144;2022-11-20T15:34:12;5.70;99.90
45619;DHT22;31343;47.520;19.144;2022-11-20T15:36:39;5.70;99.90
45619;DHT22;31343;47.520;19.144;2022-11-20T15:39:05;5.60;99.90
45619;DHT22;31343;47.520;19.144;2022-11-20T15:41:36;5.60;99.90
45619;DHT22;31343;47.520;19.144;2022-11-20T15:44:03;5.60;99.90
45619;DHT22;31343;47.520;19.144;2022-11-20T15:46:31;5.50;99.90
45619;DHT22;31343;47.520;19.144;2022-11-20T15:49:03;5.50;99.90
45619;DHT22;31343;47.520;19.144;2022-11-20T15:51:34;5.40;99.90
45619;DHT22;31343;47.520;19.144;2022-11-20T15:54:03;5.30;99.90
45619;DHT22;31343;47.520;19.144;2022-11-20T15:56:34;5.30;99.90
45619;DHT22;31343;47.520;19.144;2022-11-20T15:59:01;5.20;99.90
45619;DHT22;31343;47.520;19.144;2022-11-20T16:01:29;5.20;99.90
45619;DHT22;31343;47.520;19.144;2022-11-20T16:03:56;5.20;99.90
45619;DHT22;31343;47.520;19.144;2022-11-20T16:06:24;5.10;99.90
45619;DHT22;31343;47.520;19.144;2022-11-20T16:08:51;5.00;99.90
45619;DHT22;31343;47.520;19.144;2022-11-20T16:11:17;5.00;99.90
45619;DHT22;31343;47.520;19.144;2022-11-20T16:13:49;5.00;99.90
45619;DHT22;31343;47.520;19.144;2022-11-20T16:16:35;4.80;99.90
45619;DHT22;31343;47.520;19.144;2022-11-20T16:19:03;4.90;99.90
45619;DHT22;31343;47.520;19.144;2022-11-20T16:21:29;4.90;99.90
45619;DHT22;31343;47.520;19.144;2022-11-20T16:24:04;4.90;99.90
45619;DHT22;31343;47.520;19.144;2022-11-20T16:26:31;4.90;99.90
45619;DHT22;31343;47.520;19.144;2022-11-20T16:29:03;4.80;99.90
45619;DHT22;31343;47.520;19.144;2022-11-20T16:31:30;4.80;99.90
45619;DHT22;31343;47.520;19.144;2022-11-20T16:34:00;4.80;99.90
45619;DHT22;31343;47.520;19.144;2022-11-20T16:36:27;4.80;99.90
45619;DHT22;31343;47.520;19.144;2022-11-20T16:38:59;4.80;99.90
45619;DHT22;31343;47.520;19.144;2022-11-20T16:41:27;4.80;99.90
45619;DHT22;31343;47.520;19.144;2022-11-20T16:43:57;4.80;99.90
45619;DHT22;31343;47.520;19.144;2022-11-20T16:46:25;4.80;99.90
45619;DHT22;31343;47.520;19.144;2022-11-20T16:49:00;4.80;99.90
45619;DHT22;31343;47.520;19.144;2022-11-20T16:51:28;4.80;99.90
45619;DHT22;31343;47.520;19.144;2022-11-20T16:53:54;4.80;99.90
45619;DHT22;31343;47.520;19.144;2022-11-20T16:56:25;4.70;99.90
45619;DHT22;31343;47.520;19.144;2022-11-20T16:58:53;4.70;99.90
45619;DHT22;31343;47.520;19.144;2022-11-20T17:01:20;4.70;99.90
45619;DHT22;31343;47.520;19.144;2022-11-20T17:06:35;4.70;99.90